createdAt,value
2023-03-01T00:02:03.501Z,-1.18
2023-03-01T00:04:29.867Z,-1.19
2023-03-01T00:06:56.304Z,-1.22
2023-03-01T00:09:22.654Z,-1.18
2023-03-01T00:11:49.016Z,-1.19
2023-03-01T00:14:17.259Z,-1.21
2023-03-01T00:16:45.107Z,-1.24
2023-03-01T00:19:17.232Z,-1.23
2023-03-01T00:21:43.729Z,-1.28
2023-03-01T00:24:10.548Z,-1.32
2023-03-01T00:26:37.456Z,-1.39
2023-03-01T00:29:04.397Z,-1.42
2023-03-01T00:31:32.885Z,-1.44
2023-03-01T00:34:02.386Z,-1.43
2023-03-01T00:36:32.994Z,-1.45
2023-03-01T00:38:59.998Z,-1.49
2023-03-01T00:41:27.594Z,-1.50
2023-03-01T00:43:54.774Z,-1.53
2023-03-01T00:46:23.797Z,-1.53
2023-03-01T00:48:50.487Z,-1.59
2023-03-01T00:51:19.831Z,-1.59
2023-03-01T00:53:47.708Z,-1.62
2023-03-01T00:56:15.494Z,-1.63
2023-03-01T00:58:42.769Z,-1.67
2023-03-01T01:01:19.292Z,-1.69
2023-03-01T01:03:51.758Z,-1.73
2023-03-01T01:06:23.906Z,-1.78
2023-03-01T01:08:51.549Z,-1.82
2023-03-01T01:11:19.947Z,-1.82
2023-03-01T01:13:47.914Z,-1.85
2023-03-01T01:16:20.035Z,-1.90
2023-03-01T01:18:46.657Z,-1.97
2023-03-01T01:21:15.924Z,-2.01
2023-03-01T01:23:42.894Z,-2.03
2023-03-01T01:26:16.807Z,-2.03
2023-03-01T01:28:43.665Z,-2.02
2023-03-01T01:31:10.429Z,-2.04
2023-03-01T01:33:38.300Z,-2.02
2023-03-01T01:36:08.618Z,-2.00
2023-03-01T01:38:36.502Z,-2.00
2023-03-01T01:41:03.361Z,-1.93
2023-03-01T01:43:34.636Z,-1.91
2023-03-01T01:46:04.787Z,-1.97
2023-03-01T01:48:45.716Z,-2.07
2023-03-01T01:51:18.208Z,-2.03
2023-03-01T01:53:47.568Z,-2.05
2023-03-01T01:56:17.712Z,-1.88
2023-03-01T01:58:44.867Z,-1.86
2023-03-01T02:01:12.113Z,-1.86
2023-03-01T02:03:43.102Z,-1.85
2023-03-01T02:06:20.271Z,-1.86
2023-03-01T02:08:50.183Z,-1.82
2023-03-01T02:11:18.260Z,-1.78
2023-03-01T02:13:47.758Z,-1.87
2023-03-01T02:16:15.876Z,-1.93
2023-03-01T02:18:44.333Z,-1.98
2023-03-01T02:21:25.722Z,-2.01
2023-03-01T02:23:52.101Z,-2.11
2023-03-01T02:26:18.358Z,-2.09
2023-03-01T02:28:46.003Z,-2.15
2023-03-01T02:31:35.452Z,-2.18
2023-03-01T02:34:05.343Z,-2.25
2023-03-01T02:36:36.932Z,-2.31
2023-03-01T02:39:07.083Z,-2.39
2023-03-01T02:41:37.549Z,-2.47
2023-03-01T02:44:04.878Z,-2.42
2023-03-01T02:46:31.479Z,-2.43
2023-03-01T02:48:59.881Z,-2.46
2023-03-01T02:51:32.534Z,-2.35
2023-03-01T02:54:29.895Z,-2.38
2023-03-01T02:56:57.083Z,-2.31
2023-03-01T02:59:30.325Z,-2.38
2023-03-01T03:01:56.752Z,-2.50
2023-03-01T03:04:23.253Z,-2.49
2023-03-01T03:06:51.520Z,-2.46
2023-03-01T03:09:19.289Z,-2.46
2023-03-01T03:11:46.754Z,-2.45
2023-03-01T03:14:15.376Z,-2.48
2023-03-01T03:16:47.670Z,-2.50
2023-03-01T03:19:15.027Z,-2.55
2023-03-01T03:21:41.369Z,-2.57
2023-03-01T03:24:07.741Z,-2.63
2023-03-01T03:26:34.064Z,-2.70
2023-03-01T03:29:00.394Z,-2.70
2023-03-01T03:31:26.894Z,-2.74
2023-03-01T03:33:53.323Z,-2.75
2023-03-01T03:36:22.490Z,-2.70
2023-03-01T03:38:49.761Z,-2.74
2023-03-01T03:41:17.396Z,-2.76
2023-03-01T03:43:44.264Z,-2.77
2023-03-01T03:46:12.148Z,-2.79
2023-03-01T03:48:41.898Z,-2.79
2023-03-01T03:51:11.370Z,-2.83
2023-03-01T03:53:38.005Z,-2.83
2023-03-01T03:56:06.494Z,-2.81
2023-03-01T03:58:33.138Z,-2.84
2023-03-01T04:01:01.654Z,-2.89
2023-03-01T04:03:30.299Z,-2.96
2023-03-01T04:05:58.857Z,-3.00
2023-03-01T04:08:25.657Z,-2.91
2023-03-01T04:10:57.155Z,-3.02
2023-03-01T04:13:26.010Z,-3.05
2023-03-01T04:15:53.990Z,-3.05
2023-03-01T04:18:21.956Z,-3.03
2023-03-01T04:20:48.840Z,-2.98
2023-03-01T04:23:20.840Z,-3.02
2023-03-01T04:25:54.415Z,-3.02
2023-03-01T04:28:35.039Z,-3.05
2023-03-01T04:31:14.110Z,-3.10
2023-03-01T04:33:52.490Z,-3.12
2023-03-01T04:36:21.159Z,-3.08
2023-03-01T04:38:50.504Z,-3.17
2023-03-01T04:41:19.055Z,-3.22
2023-03-01T04:43:46.036Z,-3.29
2023-03-01T04:46:15.664Z,-3.34
2023-03-01T04:48:44.134Z,-3.35
2023-03-01T04:51:10.675Z,-3.36
2023-03-01T04:53:37.423Z,-3.39
2023-03-01T04:56:04.375Z,-3.40
2023-03-01T04:58:31.259Z,-3.44
2023-03-01T05:00:57.685Z,-3.42
2023-03-01T05:03:24.149Z,-3.49
2023-03-01T05:05:52.225Z,-3.57
2023-03-01T05:08:19.398Z,-3.60
2023-03-01T05:10:51.435Z,-3.67
2023-03-01T05:13:21.911Z,-3.66
2023-03-01T05:15:54.186Z,-3.71
2023-03-01T05:18:20.542Z,-3.66
2023-03-01T05:20:47.069Z,-3.64
2023-03-01T05:23:13.755Z,-3.68
2023-03-01T05:25:41.085Z,-3.64
2023-03-01T05:28:12.176Z,-3.68
2023-03-01T05:30:41.642Z,-3.67
2023-03-01T05:33:14.199Z,-3.61
2023-03-01T05:35:45.707Z,-3.68
2023-03-01T05:38:16.687Z,-3.61
2023-03-01T05:40:44.738Z,-3.57
2023-03-01T05:43:13.017Z,-3.57
2023-03-01T05:45:40.382Z,-3.52
2023-03-01T05:48:08.209Z,-3.56
2023-03-01T05:50:38.056Z,-3.63
2023-03-01T05:53:15.780Z,-3.56
2023-03-01T05:55:43.522Z,-3.55
2023-03-01T05:58:16.184Z,-3.58
2023-03-01T06:00:44.140Z,-3.58
2023-03-01T06:03:12.466Z,-3.57
2023-03-01T06:05:40.381Z,-3.54
2023-03-01T06:08:07.071Z,-3.46
2023-03-01T06:10:33.419Z,-3.45
2023-03-01T06:12:59.760Z,-3.44
2023-03-01T06:15:26.720Z,-3.41
2023-03-01T06:17:58.781Z,-3.37
2023-03-01T06:20:27.807Z,-3.32
2023-03-01T06:22:54.378Z,-3.31
2023-03-01T06:25:23.420Z,-3.37
2023-03-01T06:27:50.060Z,-3.31
2023-03-01T06:30:18.917Z,-3.33
2023-03-01T06:32:45.392Z,-3.29
2023-03-01T06:35:13.629Z,-3.25
2023-03-01T06:37:41.494Z,-3.26
2023-03-01T06:40:09.269Z,-3.19
2023-03-01T06:42:36.733Z,-3.18
2023-03-01T06:45:03.843Z,-3.26
2023-03-01T06:47:30.159Z,-3.19
2023-03-01T06:49:56.473Z,-3.18
2023-03-01T06:52:23.134Z,-3.10
2023-03-01T06:54:49.441Z,-3.05
2023-03-01T06:57:15.774Z,-3.00
2023-03-01T06:59:42.139Z,-2.90
2023-03-01T07:02:11.731Z,-2.80
2023-03-01T07:04:38.339Z,-2.78
2023-03-01T07:07:05.029Z,-2.71
2023-03-01T07:09:31.411Z,-2.66
2023-03-01T07:11:58.544Z,-2.57
2023-03-01T07:14:26.615Z,-2.47
2023-03-01T07:16:56.115Z,-2.39
2023-03-01T07:19:23.351Z,-2.30
2023-03-01T07:21:49.809Z,-2.20
2023-03-01T07:24:16.165Z,-2.19
2023-03-01T07:26:42.562Z,-2.10
2023-03-01T07:29:11.069Z,-2.05
2023-03-01T07:31:37.682Z,-1.93
2023-03-01T07:34:04.075Z,-1.97
2023-03-01T07:36:30.786Z,-1.87
2023-03-01T07:38:57.627Z,-1.76
2023-03-01T07:41:24.031Z,-1.68
2023-03-01T07:43:50.385Z,-1.62
2023-03-01T07:46:16.863Z,-1.58
2023-03-01T07:48:43.183Z,-1.45
2023-03-01T07:51:10.662Z,-1.35
2023-03-01T07:53:37.094Z,-1.30
2023-03-01T07:56:11.306Z,-1.25
2023-03-01T07:58:39.681Z,-1.23
2023-03-01T08:01:08.338Z,-1.20
2023-03-01T08:03:35.456Z,-1.07
2023-03-01T08:06:03.655Z,-0.99
2023-03-01T08:08:30.329Z,-0.94
2023-03-01T08:11:01.527Z,-0.82
2023-03-01T08:13:27.896Z,-0.74
2023-03-01T08:15:54.466Z,-0.68
2023-03-01T08:18:22.192Z,-0.54
2023-03-01T08:20:48.749Z,-0.53
2023-03-01T08:23:15.103Z,-0.49
2023-03-01T08:25:41.664Z,-0.36
2023-03-01T08:28:08.011Z,-0.30
2023-03-01T08:30:35.354Z,-0.25
2023-03-01T08:33:01.858Z,-0.15
2023-03-01T08:35:28.261Z,-0.06
2023-03-01T08:37:54.616Z,0.06
2023-03-01T08:40:20.954Z,0.06
2023-03-01T08:42:47.383Z,0.17
2023-03-01T08:45:15.083Z,0.31
2023-03-01T08:47:41.460Z,0.48
2023-03-01T08:50:08.567Z,0.52
2023-03-01T08:52:34.976Z,0.68
2023-03-01T08:55:02.438Z,0.85
2023-03-01T08:57:28.794Z,1.10
2023-03-01T08:59:56.976Z,1.28
2023-03-01T09:02:23.501Z,1.55
2023-03-01T09:04:49.961Z,1.66
2023-03-01T09:07:16.299Z,1.74
2023-03-01T09:09:42.615Z,1.93
2023-03-01T09:12:09.370Z,1.86
2023-03-01T09:14:38.105Z,1.98
2023-03-01T09:17:04.509Z,2.01
2023-03-01T09:19:30.929Z,2.07
2023-03-01T09:21:59.169Z,2.15
2023-03-01T09:24:25.979Z,2.25
2023-03-01T09:26:56.563Z,2.34
2023-03-01T09:29:23.762Z,2.26
2023-03-01T09:31:50.309Z,2.54
2023-03-01T09:34:23.994Z,2.66
2023-03-01T09:36:52.020Z,2.60
2023-03-01T09:39:19.110Z,2.59
2023-03-01T09:41:48.092Z,2.84
2023-03-01T09:44:20.007Z,2.90
2023-03-01T09:46:47.107Z,2.97
2023-03-01T09:49:20.515Z,3.16
2023-03-01T09:52:00.279Z,3.27
2023-03-01T09:54:27.116Z,3.22
2023-03-01T09:57:14.005Z,3.09
2023-03-01T10:00:01.671Z,3.18
2023-03-01T10:02:44.640Z,3.45
2023-03-01T10:05:35.368Z,3.68
2023-03-01T10:08:06.980Z,3.61
2023-03-01T10:10:39.297Z,3.71
2023-03-01T10:13:25.030Z,3.87
2023-03-01T10:15:58.522Z,3.85
2023-03-01T10:18:32.500Z,3.70
2023-03-01T10:21:01.436Z,3.75
2023-03-01T10:23:31.709Z,3.80
2023-03-01T10:26:05.266Z,3.81
2023-03-01T10:28:59.575Z,3.81
2023-03-01T10:31:38.181Z,3.95
2023-03-01T10:34:31.259Z,4.11
2023-03-01T10:37:01.845Z,4.16
2023-03-01T10:39:28.385Z,4.33
2023-03-01T10:41:58.247Z,4.28
2023-03-01T10:44:48.869Z,4.61
2023-03-01T10:47:25.431Z,4.39
2023-03-01T10:50:02.484Z,4.55
2023-03-01T10:52:34.089Z,4.51
2023-03-01T10:55:04.685Z,4.52
2023-03-01T10:57:34.294Z,4.57
2023-03-01T11:00:23.302Z,4.70
2023-03-01T11:03:00.426Z,4.82
2023-03-01T11:05:29.278Z,4.68
2023-03-01T11:07:57.922Z,4.73
2023-03-01T11:10:30.296Z,4.80
2023-03-01T11:13:20.601Z,4.93
2023-03-01T11:16:01.062Z,4.99
2023-03-01T11:18:44.240Z,4.96
2023-03-01T11:21:13.675Z,5.20
2023-03-01T11:23:40.759Z,5.20
2023-03-01T11:26:11.628Z,5.35
2023-03-01T11:28:41.043Z,5.34
2023-03-01T11:31:13.147Z,5.32
2023-03-01T11:33:49.119Z,5.57
2023-03-01T11:36:30.546Z,5.68
2023-03-01T11:39:01.436Z,5.71
2023-03-01T11:41:33.049Z,5.63
2023-03-01T11:44:10.906Z,5.69
2023-03-01T11:47:02.002Z,5.71
2023-03-01T11:50:04.048Z,6.11
2023-03-01T11:52:33.743Z,6.24
2023-03-01T11:55:18.601Z,6.01
2023-03-01T11:57:47.947Z,5.92
2023-03-01T12:00:17.240Z,6.23
2023-03-01T12:03:13.003Z,6.43
2023-03-01T12:06:00.526Z,6.48
2023-03-01T12:08:36.600Z,6.71
2023-03-01T12:11:59.823Z,6.91
2023-03-01T12:14:44.094Z,6.76
2023-03-01T12:17:25.280Z,6.98
2023-03-01T12:20:22.828Z,6.95
2023-03-01T12:23:14.621Z,7.02
2023-03-01T12:26:03.312Z,7.01
2023-03-01T12:28:49.880Z,7.11
2023-03-01T12:31:55.497Z,7.15
2023-03-01T12:35:10.659Z,6.88
2023-03-01T12:38:14.244Z,6.82
2023-03-01T12:41:04.694Z,6.74
2023-03-01T12:43:41.487Z,6.85
2023-03-01T12:46:32.635Z,6.87
2023-03-01T12:49:24.427Z,7.16
2023-03-01T12:52:21.959Z,7.23
2023-03-01T12:54:50.103Z,7.35
2023-03-01T12:57:26.740Z,7.28
2023-03-01T13:00:23.065Z,7.04
2023-03-01T13:02:59.103Z,6.88
2023-03-01T13:05:31.586Z,6.80
2023-03-01T13:08:35.569Z,6.80
2023-03-01T13:11:08.132Z,6.97
2023-03-01T13:13:34.481Z,6.85
2023-03-01T13:16:30.336Z,6.74
2023-03-01T13:19:22.819Z,6.70
2023-03-01T13:21:50.982Z,6.70
2023-03-01T13:24:41.161Z,6.50
2023-03-01T13:27:07.580Z,6.77
2023-03-01T13:29:51.990Z,6.98
2023-03-01T13:32:44.270Z,7.14
2023-03-01T13:35:20.652Z,7.33
2023-03-01T13:37:47.845Z,7.55
2023-03-01T13:40:17.763Z,7.26
2023-03-01T13:42:53.674Z,6.94
2023-03-01T13:45:43.861Z,6.84
2023-03-01T13:48:24.060Z,7.15
2023-03-01T13:50:55.641Z,7.29
2023-03-01T13:53:30.469Z,7.33
2023-03-01T13:56:04.528Z,7.33
2023-03-01T13:58:44.799Z,7.24
2023-03-01T14:01:30.133Z,7.11
2023-03-01T14:03:57.126Z,7.14
2023-03-01T14:06:32.821Z,7.07
2023-03-01T14:09:05.579Z,6.88
2023-03-01T14:12:01.392Z,6.82
2023-03-01T14:14:45.768Z,6.71
2023-03-01T14:17:25.696Z,6.76
2023-03-01T14:19:58.486Z,6.56
2023-03-01T14:22:29.383Z,6.43
2023-03-01T14:25:02.085Z,6.37
2023-03-01T14:27:37.212Z,6.38
2023-03-01T14:30:11.155Z,6.56
2023-03-01T14:32:37.546Z,6.58
2023-03-01T14:35:28.834Z,6.55
2023-03-01T14:37:55.284Z,6.53
2023-03-01T14:40:26.203Z,6.66
2023-03-01T14:42:54.657Z,6.75
2023-03-01T14:45:21.119Z,6.76
2023-03-01T14:47:48.233Z,6.56
2023-03-01T14:50:28.391Z,6.33
2023-03-01T14:52:59.142Z,6.38
2023-03-01T14:55:36.978Z,6.35
2023-03-01T14:58:06.058Z,6.36
2023-03-01T15:00:35.227Z,6.47
2023-03-01T15:03:10.688Z,6.46
2023-03-01T15:05:37.762Z,6.33
2023-03-01T15:08:05.323Z,6.24
2023-03-01T15:10:34.989Z,6.36
2023-03-01T15:13:43.439Z,6.36
2023-03-01T15:16:12.610Z,6.44
2023-03-01T15:18:45.623Z,6.42
2023-03-01T15:21:23.788Z,6.34
2023-03-01T15:23:54.489Z,6.19
2023-03-01T15:26:26.948Z,6.35
2023-03-01T15:28:58.953Z,6.30
2023-03-01T15:31:29.003Z,6.25
2023-03-01T15:34:25.739Z,6.35
2023-03-01T15:36:54.764Z,6.35
2023-03-01T15:39:44.225Z,6.33
2023-03-01T15:42:30.704Z,6.35
2023-03-01T15:45:22.017Z,6.15
2023-03-01T15:47:51.188Z,6.21
2023-03-01T15:50:30.018Z,6.18
2023-03-01T15:52:59.934Z,6.13
2023-03-01T15:55:30.549Z,6.14
2023-03-01T15:58:04.371Z,6.18
2023-03-01T16:00:30.971Z,6.17
2023-03-01T16:02:57.670Z,6.15
2023-03-01T16:05:27.850Z,6.00
2023-03-01T16:07:54.744Z,6.17
2023-03-01T16:10:21.826Z,6.11
2023-03-01T16:12:48.353Z,6.12
2023-03-01T16:15:19.343Z,5.85
2023-03-01T16:17:45.827Z,5.92
2023-03-01T16:20:28.368Z,5.96
2023-03-01T16:22:58.750Z,5.93
2023-03-01T16:25:25.095Z,6.03
2023-03-01T16:27:53.096Z,6.02
2023-03-01T16:30:21.683Z,5.93
2023-03-01T16:32:49.448Z,5.89
2023-03-01T16:35:19.229Z,5.75
2023-03-01T16:37:46.249Z,5.72
2023-03-01T16:40:27.966Z,5.67
2023-03-01T16:43:00.118Z,5.63
2023-03-01T16:45:28.325Z,5.63
2023-03-01T16:47:56.121Z,5.59
2023-03-01T16:50:23.408Z,5.56
2023-03-01T16:52:50.165Z,5.48
2023-03-01T16:55:16.662Z,5.47
2023-03-01T16:57:43.316Z,5.35
2023-03-01T17:00:13.564Z,5.21
2023-03-01T17:02:41.885Z,5.17
2023-03-01T17:05:10.743Z,5.03
2023-03-01T17:07:37.464Z,5.06
2023-03-01T17:10:08.886Z,5.06
2023-03-01T17:12:35.868Z,4.90
2023-03-01T17:15:02.855Z,4.86
2023-03-01T17:17:29.224Z,4.90
2023-03-01T17:19:55.542Z,4.81
2023-03-01T17:22:21.961Z,4.70
2023-03-01T17:24:48.579Z,4.60
2023-03-01T17:27:15.889Z,4.63
2023-03-01T17:29:42.285Z,4.63
2023-03-01T17:32:09.527Z,4.56
2023-03-01T17:34:37.274Z,4.52
2023-03-01T17:37:03.629Z,4.36
2023-03-01T17:39:35.903Z,4.38
2023-03-01T17:42:06.048Z,4.27
2023-03-01T17:44:36.361Z,4.21
2023-03-01T17:47:04.135Z,4.22
2023-03-01T17:49:31.057Z,4.18
2023-03-01T17:51:57.658Z,4.23
2023-03-01T17:54:24.361Z,4.19
2023-03-01T17:56:51.468Z,4.09
2023-03-01T17:59:18.111Z,4.02
2023-03-01T18:01:45.114Z,3.93
2023-03-01T18:04:11.555Z,3.79
2023-03-01T18:06:38.062Z,3.83
2023-03-01T18:09:04.842Z,3.77
2023-03-01T18:11:34.051Z,3.64
2023-03-01T18:14:00.781Z,3.72
2023-03-01T18:16:28.660Z,3.70
2023-03-01T18:18:56.788Z,3.71
2023-03-01T18:21:23.528Z,3.68
2023-03-01T18:23:50.081Z,3.68
2023-03-01T18:26:20.312Z,3.56
2023-03-01T18:28:50.636Z,3.49
2023-03-01T18:31:18.414Z,3.52
2023-03-01T18:33:46.458Z,3.49
2023-03-01T18:36:18.099Z,3.51
2023-03-01T18:38:44.631Z,3.47
2023-03-01T18:41:11.163Z,3.43
2023-03-01T18:43:40.050Z,3.38
2023-03-01T18:46:06.628Z,3.32
2023-03-01T18:48:33.227Z,3.22
2023-03-01T18:51:08.513Z,3.28
2023-03-01T18:53:34.850Z,3.21
2023-03-01T18:56:02.145Z,3.22
2023-03-01T18:58:28.760Z,3.26
2023-03-01T19:00:55.129Z,3.12
2023-03-01T19:03:21.500Z,3.20
2023-03-01T19:05:47.828Z,3.12
2023-03-01T19:08:14.592Z,3.02
2023-03-01T19:10:41.012Z,3.00
2023-03-01T19:13:07.405Z,2.97
2023-03-01T19:15:33.803Z,3.01
2023-03-01T19:18:01.532Z,2.92
2023-03-01T19:20:27.877Z,2.92
2023-03-01T19:22:54.235Z,2.91
2023-03-01T19:25:20.566Z,2.81
2023-03-01T19:27:48.944Z,2.84
2023-03-01T19:30:15.600Z,2.83
2023-03-01T19:32:41.978Z,2.69
2023-03-01T19:35:08.560Z,2.69
2023-03-01T19:37:35.226Z,2.68
2023-03-01T19:40:01.784Z,2.63
2023-03-01T19:42:28.254Z,2.74
2023-03-01T19:44:55.034Z,2.69
2023-03-01T19:47:21.459Z,2.61
2023-03-01T19:49:47.982Z,2.61
2023-03-01T19:52:14.323Z,2.62
2023-03-01T19:54:40.660Z,2.55
2023-03-01T19:57:07.006Z,2.44
2023-03-01T19:59:33.514Z,2.46
2023-03-01T20:02:00.202Z,2.42
2023-03-01T20:04:26.660Z,2.42
2023-03-01T20:06:53.004Z,2.34
2023-03-01T20:09:22.139Z,2.42
2023-03-01T20:11:50.281Z,2.39
2023-03-01T20:14:17.305Z,2.29
2023-03-01T20:16:43.676Z,2.23
2023-03-01T20:19:10.013Z,2.25
2023-03-01T20:21:36.428Z,2.32
2023-03-01T20:24:02.782Z,2.31
2023-03-01T20:26:29.199Z,2.26
2023-03-01T20:28:56.981Z,2.25
2023-03-01T20:31:29.211Z,2.24
2023-03-01T20:33:58.199Z,2.24
2023-03-01T20:36:25.605Z,2.17
2023-03-01T20:38:53.360Z,2.15
2023-03-01T20:41:20.146Z,2.13
2023-03-01T20:43:54.397Z,2.14
2023-03-01T20:46:21.133Z,2.09
2023-03-01T20:48:47.474Z,2.09
2023-03-01T20:51:13.868Z,2.05
2023-03-01T20:53:40.685Z,2.11
2023-03-01T20:56:10.826Z,2.13
2023-03-01T20:58:38.063Z,2.05
2023-03-01T21:01:06.355Z,2.01
2023-03-01T21:03:33.496Z,2.05
2023-03-01T21:06:02.309Z,2.07
2023-03-01T21:08:29.880Z,2.03
2023-03-01T21:10:57.714Z,1.93
2023-03-01T21:13:25.356Z,1.98
2023-03-01T21:15:56.519Z,1.99
2023-03-01T21:18:23.609Z,2.00
2023-03-01T21:20:49.957Z,1.97
2023-03-01T21:23:19.199Z,1.96
2023-03-01T21:25:45.562Z,1.98
2023-03-01T21:28:11.898Z,1.91
2023-03-01T21:30:38.381Z,1.98
2023-03-01T21:33:04.754Z,1.88
2023-03-01T21:35:31.128Z,1.84
2023-03-01T21:37:57.501Z,1.92
2023-03-01T21:40:23.822Z,1.87
2023-03-01T21:42:50.276Z,1.83
2023-03-01T21:45:16.750Z,1.89
2023-03-01T21:47:43.230Z,1.85
2023-03-01T21:50:10.213Z,1.77
2023-03-01T21:52:36.561Z,1.77
2023-03-01T21:55:04.082Z,1.84
2023-03-01T21:57:30.404Z,1.88
2023-03-01T21:59:56.939Z,1.86
2023-03-01T22:02:23.307Z,1.78
2023-03-01T22:04:57.131Z,1.70
2023-03-01T22:07:23.615Z,1.70
2023-03-01T22:09:49.973Z,1.74
2023-03-01T22:12:16.302Z,1.68
2023-03-01T22:14:43.856Z,1.56
2023-03-01T22:17:10.335Z,1.70
2023-03-01T22:19:36.707Z,1.66
2023-03-01T22:22:03.825Z,1.67
2023-03-01T22:24:30.274Z,1.64
2023-03-01T22:26:56.770Z,1.60
2023-03-01T22:29:28.889Z,1.68
2023-03-01T22:31:57.148Z,1.55
2023-03-01T22:34:24.160Z,1.53
2023-03-01T22:36:50.556Z,1.48
2023-03-01T22:39:19.635Z,1.51
2023-03-01T22:41:47.857Z,1.46
2023-03-01T22:44:16.277Z,1.55
2023-03-01T22:46:43.141Z,1.43
2023-03-01T22:49:10.212Z,1.47
2023-03-01T22:51:39.399Z,1.44
2023-03-01T22:54:06.988Z,1.43
2023-03-01T22:56:35.362Z,1.45
2023-03-01T22:59:04.400Z,1.47
2023-03-01T23:01:31.197Z,1.47
2023-03-01T23:03:57.794Z,1.48
2023-03-01T23:06:24.759Z,1.42
2023-03-01T23:08:52.997Z,1.40
2023-03-01T23:11:21.050Z,1.37
2023-03-01T23:13:48.466Z,1.35
2023-03-01T23:16:15.812Z,1.31
2023-03-01T23:18:42.790Z,1.32
2023-03-01T23:21:15.838Z,1.25
2023-03-01T23:23:42.484Z,1.15
2023-03-01T23:26:09.249Z,1.18
2023-03-01T23:28:40.614Z,1.19
2023-03-01T23:31:10.155Z,1.20
2023-03-01T23:33:39.770Z,1.21
2023-03-01T23:36:24.539Z,1.19
2023-03-01T23:38:53.010Z,1.18
2023-03-01T23:41:22.473Z,1.18
2023-03-01T23:43:51.419Z,1.19
2023-03-01T23:46:19.760Z,1.15
2023-03-01T23:48:46.522Z,1.13
2023-03-01T23:51:14.838Z,1.14
2023-03-01T23:53:54.121Z,1.05
2023-03-01T23:56:33.191Z,1.04
2023-03-01T23:59:02.595Z,0.97
